Time;durP1;ratioP1;P1;durP2;ratioP2;P2;SDS_P1;SDS_P2;PMS_P1;PMS_P2;Temp;Humidity;BMP_temperature;BMP_pressure;BME280_temperature;BME280_humidity;BME280_pressure;Samples;Min_cycle;Max_cycle;Signal;HPM_P1;HPM_P2
2023/08/26 00:00:12;;;;;;;13.00;9.35;;;;;;;22.64;58.73;101222.66;5094105;28;20028;-41
2023/08/26 00:02:38;;;;;;;14.95;9.60;;;;;;;22.78;58.69;101223.69;5093577;28;20174;-41
2023/08/26 00:05:04;;;;;;;14.82;9.70;;;;;;;22.51;59.85;101215.88;5093816;28;20538;-42
2023/08/26 00:07:31;;;;;;;14.43;10.45;;;;;;;22.42;59.68;101224.88;5093549;28;20034;-41
2023/08/26 00:09:57;;;;;;;16.48;9.00;;;;;;;22.55;59.49;101221.59;5092770;28;20389;-41
2023/08/26 00:12:23;;;;;;;14.27;9.07;;;;;;;22.43;59.84;101212.88;5091204;28;20036;-41
2023/08/26 00:14:49;;;;;;;17.63;11.23;;;;;;;22.16;60.32;101214.03;5091409;28;20028;-40
2023/08/26 00:17:17;;;;;;;15.90;9.50;;;;;;;22.36;60.34;101216.69;5092791;28;20020;-40
2023/08/26 00:19:44;;;;;;;16.55;9.55;;;;;;;22.34;60.92;101210.72;5092133;28;20051;-41
2023/08/26 00:22:11;;;;;;;15.75;9.93;;;;;;;22.30;60.86;101212.34;5092979;28;20084;-42
2023/08/26 00:24:37;;;;;;;14.60;9.88;;;;;;;22.37;60.70;101214.78;5093574;28;20027;-43
2023/08/26 00:27:05;;;;;;;13.85;9.88;;;;;;;22.11;61.59;101216.75;5093359;28;20032;-43
2023/08/26 00:29:32;;;;;;;14.88;9.38;;;;;;;22.23;61.35;101221.91;5093343;28;20214;-42
2023/08/26 00:31:58;;;;;;;20.73;11.10;;;;;;;22.19;61.48;101218.91;5093690;28;20028;-43
2023/08/26 00:34:24;;;;;;;21.48;11.27;;;;;;;21.86;62.19;101209.34;5093464;28;20103;-42
2023/08/26 00:36:51;;;;;;;22.15;10.95;;;;;;;21.76;62.74;101212.88;5092989;28;20035;-43
2023/08/26 00:39:17;;;;;;;18.85;10.77;;;;;;;21.92;63.10;101215.63;5092484;28;20027;-42
2023/08/26 00:41:43;;;;;;;12.93;9.38;;;;;;;21.97;62.31;101208.25;5092831;28;20032;-45
2023/08/26 00:44:09;;;;;;;16.30;10.85;;;;;;;21.95;62.28;101212.38;5093223;28;20082;-43
2023/08/26 00:46:36;;;;;;;16.55;10.73;;;;;;;21.77;62.44;101217.28;5092030;28;20035;-42
2023/08/26 00:49:02;;;;;;;21.02;11.38;;;;;;;21.64;63.73;101208.81;5081915;28;20024;-43
2023/08/26 00:51:29;;;;;;;17.35;10.32;;;;;;;21.74;63.20;101208.81;5092500;28;20040;-44
2023/08/26 00:53:56;;;;;;;18.70;10.43;;;;;;;21.60;63.41;101198.47;5092759;28;20024;-43
2023/08/26 00:56:23;;;;;;;15.77;10.55;;;;;;;21.52;63.61;101206.34;5086138;28;20033;-41
2023/08/26 00:58:50;;;;;;;20.45;11.15;;;;;;;21.49;64.04;101207.72;5090830;28;20142;-43
2023/08/26 01:01:16;;;;;;;19.63;11.20;;;;;;;21.18;64.99;101209.50;5092321;28;20021;-42
2023/08/26 01:03:42;;;;;;;13.65;10.82;;;;;;;20.92;66.67;101207.75;5100873;28;20031;-47
2023/08/26 01:06:08;;;;;;;19.48;11.57;;;;;;;20.77;67.06;101211.25;5096692;28;20081;-44
2023/08/26 01:08:35;;;;;;;18.60;11.25;;;;;;;20.91;66.42;101208.84;5092444;28;20034;-44
2023/08/26 01:11:10;;;;;;;17.02;10.90;;;;;;;21.03;66.45;101210.25;5093275;28;20183;-44
2023/08/26 01:13:48;;;;;;;;;;;;;;;21.09;65.62;101216.53;5092563;28;20027;-43
2023/08/26 01:16:15;;;;;;;20.75;10.85;;;;;;;20.85;66.76;101213.47;5091909;28;19916;-42
2023/08/26 01:18:43;;;;;;;18.60;11.27;;;;;;;20.82;67.20;101203.94;5104268;28;20119;-43
2023/08/26 01:21:13;;;;;;;20.52;11.82;;;;;;;20.75;67.67;101205.25;5112624;28;20032;-43
2023/08/26 01:23:43;;;;;;;16.15;10.75;;;;;;;20.88;67.49;101206.69;5112728;28;20024;-48
2023/08/26 01:26:10;;;;;;;17.05;10.85;;;;;;;20.81;67.58;101207.72;5106996;28;20024;-43
2023/08/26 01:28:36;;;;;;;16.90;10.85;;;;;;;21.03;66.87;101215.69;5104206;28;20036;-43
2023/08/26 01:31:10;;;;;;;16.27;10.73;;;;;;;20.89;66.63;101213.75;5092606;28;20107;-44
2023/08/26 01:34:20;;;;;;;23.85;12.07;;;;;;;20.49;68.81;101205.13;5092512;28;20024;-44
2023/08/26 01:36:48;;;;;;;19.73;11.73;;;;;;;20.71;68.25;101217.72;5092343;28;20107;-43
2023/08/26 01:39:16;;;;;;;25.42;13.10;;;;;;;20.55;69.04;101214.13;5092054;28;20032;-43
2023/08/26 01:41:51;;;;;;;17.92;11.70;;;;;;;20.51;69.20;101213.84;5100953;28;20023;-45
2023/08/26 01:44:19;;;;;;;20.60;12.25;;;;;;;20.61;69.23;101218.53;5112860;28;20023;-44
2023/08/26 01:46:48;;;;;;;19.85;11.85;;;;;;;20.54;69.60;101209.75;5102500;28;20101;-44
2023/08/26 01:49:14;;;;;;;22.40;12.77;;;;;;;20.35;69.19;101214.78;5091891;28;20024;-43
2023/08/26 01:51:41;;;;;;;18.92;12.52;;;;;;;20.35;69.85;101212.06;5092105;28;20055;-44
2023/08/26 01:54:07;;;;;;;22.55;11.52;;;;;;;20.70;69.16;101211.47;5091845;28;20028;-45
2023/08/26 01:56:34;;;;;;;25.42;13.88;;;;;;;20.46;69.40;101204.81;5092341;28;20099;-44
2023/08/26 01:59:01;;;;;;;21.00;12.77;;;;;;;20.19;70.59;101208.41;5092241;28;20122;-45
2023/08/26 02:01:27;;;;;;;21.88;12.93;;;;;;;20.25;70.88;101209.28;5081427;28;20069;-45
2023/08/26 02:03:53;;;;;;;19.30;12.48;;;;;;;20.31;70.37;101209.03;5082017;28;20024;-44
2023/08/26 02:06:19;;;;;;;21.33;12.23;;;;;;;20.10;71.14;101207.28;5084035;28;20060;-47
2023/08/26 02:08:47;;;;;;;17.17;11.70;;;;;;;20.42;69.94;101204.50;5071324;28;20116;-46
2023/08/26 02:11:13;;;;;;;21.38;12.27;;;;;;;20.28;70.27;101204.16;5071423;28;20426;-43
2023/08/26 02:13:39;;;;;;;17.77;11.65;;;;;;;20.38;69.56;101208.03;5071277;28;20020;-43
2023/08/26 02:16:05;;;;;;;19.33;11.60;;;;;;;20.37;69.59;101211.78;5071955;28;20104;-47
2023/08/26 02:18:32;;;;;;;18.52;12.20;;;;;;;19.71;71.87;101198.50;5073553;28;20028;-47
2023/08/26 02:20:58;;;;;;;20.05;12.02;;;;;;;19.49;72.61;101201.28;5072340;28;20032;-43
2023/08/26 02:23:24;;;;;;;18.30;12.73;;;;;;;19.50;72.61;101197.50;5111851;28;20027;-45
2023/08/26 02:25:50;;;;;;;31.52;13.20;;;;;;;19.51;72.33;101197.22;5111990;28;20110;-45
2023/08/26 02:28:16;;;;;;;19.05;11.60;;;;;;;19.71;72.29;101199.38;5087824;28;20520;-43
2023/08/26 02:30:43;;;;;;;17.33;11.85;;;;;;;19.54;73.06;101204.03;5074863;28;20494;-43
2023/08/26 02:33:09;;;;;;;22.75;14.07;;;;;;;19.25;74.35;101201.56;5071848;28;20029;-45
2023/08/26 02:35:35;;;;;;;19.73;12.63;;;;;;;19.31;74.57;101220.63;5071655;28;20025;-43
2023/08/26 02:38:02;;;;;;;20.52;13.35;;;;;;;19.08;75.78;101208.16;5071731;28;20024;-43
2023/08/26 02:40:28;;;;;;;18.25;12.80;;;;;;;19.11;75.59;101205.78;5071542;28;20020;-44
2023/08/26 02:42:54;;;;;;;21.75;13.05;;;;;;;19.12;75.42;101204.69;5078379;28;20119;-44
2023/08/26 02:45:20;;;;;;;18.48;13.15;;;;;;;18.97;76.46;101215.34;5071678;28;20024;-44
2023/08/26 02:47:47;;;;;;;23.42;13.52;;;;;;;18.83;77.31;101205.97;5071910;28;20406;-44
2023/08/26 02:50:13;;;;;;;23.80;14.23;;;;;;;18.57;78.71;101211.00;5072463;28;20025;-43
2023/08/26 02:52:39;;;;;;;23.52;15.38;;;;;;;18.47;79.35;101205.44;5102706;28;20028;-42
2023/08/26 02:55:06;;;;;;;23.33;15.30;;;;;;;18.37;80.02;101208.00;5091457;28;20016;-44
2023/08/26 02:57:32;;;;;;;19.15;13.93;;;;;;;18.30;80.62;101216.31;5091610;28;20031;-43
2023/08/26 02:59:58;;;;;;;22.27;14.25;;;;;;;18.25;81.02;101210.00;5081692;28;20032;-42
2023/08/26 03:02:24;;;;;;;20.25;14.30;;;;;;;18.24;80.65;101216.50;5091472;28;20536;-43
2023/08/26 03:04:52;;;;;;;19.08;13.50;;;;;;;18.24;80.95;101213.78;5094655;28;20047;-43
2023/08/26 03:07:18;;;;;;;22.38;14.05;;;;;;;18.42;79.83;101213.50;5095425;28;20531;-44
2023/08/26 03:09:44;;;;;;;20.55;13.23;;;;;;;18.09;81.15;101214.34;5095333;28;20122;-42
2023/08/26 03:12:10;;;;;;;20.25;13.80;;;;;;;18.11;80.76;101218.47;5083874;28;20031;-42
2023/08/26 03:14:36;;;;;;;22.20;14.95;;;;;;;18.12;81.13;101213.88;5106025;28;20032;-42
2023/08/26 03:17:03;;;;;;;20.83;14.38;;;;;;;17.90;82.53;101219.19;5094949;28;20398;-42
2023/08/26 03:19:30;;;;;;;19.88;13.88;;;;;;;18.18;81.66;101221.81;5090367;28;20027;-43
2023/08/26 03:21:56;;;;;;;29.55;14.98;;;;;;;18.01;81.74;101223.72;5094947;28;20020;-42
2023/08/26 03:24:22;;;;;;;21.52;12.90;;;;;;;18.12;81.83;101227.41;5080891;28;20028;-43
2023/08/26 03:26:48;;;;;;;19.05;13.30;;;;;;;17.83;82.83;101223.97;5090024;28;20031;-42
2023/08/26 03:29:14;;;;;;;18.63;12.60;;;;;;;18.00;82.04;101224.78;5074226;28;20032;-43
2023/08/26 03:31:43;;;;;;;18.98;12.88;;;;;;;18.10;81.47;101230.38;5092377;28;20111;-43
2023/08/26 03:34:09;;;;;;;18.05;12.82;;;;;;;18.03;82.19;101227.00;5115393;28;20036;-43
2023/08/26 03:36:35;;;;;;;18.15;13.82;;;;;;;17.94;82.35;101239.31;5115299;28;20028;-43
2023/08/26 03:39:02;;;;;;;19.55;13.27;;;;;;;18.09;81.52;101233.31;5105683;28;20066;-45
2023/08/26 03:41:28;;;;;;;20.13;13.05;;;;;;;18.15;81.68;101245.88;5095091;28;20028;-44
2023/08/26 03:43:54;;;;;;;19.85;13.85;;;;;;;17.82;83.35;101244.81;5094898;28;20482;-43
2023/08/26 03:46:20;;;;;;;21.73;13.80;;;;;;;17.86;83.67;101254.06;5094621;28;20112;-43
2023/08/26 03:48:46;;;;;;;15.20;12.52;;;;;;;18.10;82.04;101246.63;5094425;28;20035;-44
2023/08/26 03:51:13;;;;;;;17.67;13.10;;;;;;;18.00;82.48;101249.16;5094367;28;20502;-43
2023/08/26 03:53:39;;;;;;;16.85;11.77;;;;;;;17.86;83.42;101254.06;5094588;28;20032;-43
2023/08/26 03:56:06;;;;;;;16.58;13.15;;;;;;;17.97;83.09;101257.78;5094749;28;20016;-45
2023/08/26 03:58:33;;;;;;;18.85;12.95;;;;;;;18.10;82.08;101257.47;5093940;28;20036;-43
2023/08/26 04:01:06;;;;;;;20.45;12.63;;;;;;;18.02;82.73;101257.88;5094039;28;20116;-43
2023/08/26 04:03:33;;;;;;;21.52;13.18;;;;;;;18.11;82.60;101264.53;5101776;28;20055;-43
2023/08/26 04:06:04;;;;;;;18.75;12.00;;;;;;;17.89;83.96;101266.31;5114421;28;20031;-44
2023/08/26 04:08:32;;;;;;;17.13;11.98;;;;;;;17.79;85.05;101266.13;5097051;28;20031;-43
2023/08/26 04:11:00;;;;;;;18.55;13.20;;;;;;;17.64;86.40;101270.16;5093981;28;20533;-43
2023/08/26 04:13:28;;;;;;;21.15;12.05;;;;;;;17.74;86.70;101277.69;5094348;28;20028;-43
2023/08/26 04:15:56;;;;;;;17.38;11.77;;;;;;;17.66;86.85;101276.16;5093373;28;20036;-42
2023/08/26 04:18:23;;;;;;;18.20;12.40;;;;;;;17.60;86.66;101279.84;5094175;28;20036;-43
2023/08/26 04:20:50;;;;;;;17.25;12.27;;;;;;;17.61;87.16;101277.94;5112502;28;20474;-43
2023/08/26 04:23:17;;;;;;;14.55;11.93;;;;;;;17.61;86.61;101286.06;5114766;28;20030;-43
2023/08/26 04:25:43;;;;;;;16.55;11.73;;;;;;;17.61;86.87;101273.34;5103152;28;20078;-43
2023/08/26 04:28:11;;;;;;;16.38;12.45;;;;;;;17.67;86.32;101276.97;5093493;28;20096;-43
2023/08/26 04:30:38;;;;;;;21.70;12.75;;;;;;;17.63;86.24;101276.63;5093705;28;20047;-42
2023/08/26 04:33:04;;;;;;;19.27;12.15;;;;;;;17.82;85.21;101284.56;5093881;28;20067;-42
2023/08/26 04:35:31;;;;;;;17.42;12.45;;;;;;;17.75;85.42;101286.63;5093748;28;20597;-44
2023/08/26 04:37:58;;;;;;;17.42;11.75;;;;;;;17.61;86.22;101286.91;5093365;28;20028;-43
2023/08/26 04:40:25;;;;;;;18.45;12.65;;;;;;;17.65;85.51;101289.91;5093706;28;20497;-42
2023/08/26 04:42:51;;;;;;;16.13;12.35;;;;;;;17.57;85.91;101290.31;5093791;28;20024;-43
2023/08/26 04:45:18;;;;;;;20.10;12.60;;;;;;;17.65;85.61;101295.34;5093445;28;20024;-43
2023/08/26 04:47:44;;;;;;;17.58;11.90;;;;;;;17.60;85.44;101298.78;5093054;28;20444;-42
2023/08/26 04:50:11;;;;;;;22.15;12.75;;;;;;;17.37;86.62;101299.66;5093440;28;20030;-43
2023/08/26 04:52:39;;;;;;;20.48;12.93;;;;;;;17.27;87.16;101304.06;5093650;28;20024;-42
2023/08/26 04:55:10;;;;;;;15.25;12.32;;;;;;;17.29;87.11;101305.47;5093709;28;20028;-43
2023/08/26 04:57:36;;;;;;;19.15;12.07;;;;;;;17.38;86.80;101301.34;5072771;28;20051;-43
2023/08/26 05:00:10;;;;;;;18.60;13.00;;;;;;;17.35;86.72;101309.09;5073100;28;20028;-43
2023/08/26 05:02:38;;;;;;;16.60;12.77;;;;;;;17.27;87.24;101313.00;5073053;28;20024;-44
2023/08/26 05:05:05;;;;;;;21.65;13.68;;;;;;;17.28;87.50;101300.31;5072692;28;20418;-43
2023/08/26 05:07:32;;;;;;;19.55;12.65;;;;;;;17.44;86.52;101304.97;5073002;28;20035;-46
2023/08/26 05:09:58;;;;;;;17.02;12.77;;;;;;;17.13;87.90;101304.31;5072909;28;20375;-43
2023/08/26 05:12:24;;;;;;;19.88;12.93;;;;;;;17.03;89.53;101309.50;5073155;28;20024;-43
2023/08/26 05:14:50;;;;;;;20.75;12.55;;;;;;;17.28;88.24;101316.53;5072919;28;20025;-42
2023/08/26 05:17:17;;;;;;;21.50;14.25;;;;;;;17.18;88.18;101298.19;5073054;28;20380;-44
2023/08/26 05:19:43;;;;;;;18.48;13.25;;;;;;;17.18;88.44;101302.78;5072348;28;20036;-42
2023/08/26 05:22:09;;;;;;;16.17;12.70;;;;;;;17.18;88.69;101309.03;5072913;28;20360;-44
2023/08/26 05:24:35;;;;;;;20.05;13.55;;;;;;;17.06;88.78;101303.63;5072595;28;20027;-43
2023/08/26 05:27:03;;;;;;;18.92;13.23;;;;;;;17.07;88.37;101299.88;5071779;28;20021;-43
2023/08/26 05:29:29;;;;;;;19.33;12.18;;;;;;;17.09;87.88;101305.84;5072187;28;20588;-42
2023/08/26 05:31:55;;;;;;;18.20;12.75;;;;;;;17.14;87.58;101305.97;5072070;28;20033;-42
2023/08/26 05:34:21;;;;;;;19.55;12.98;;;;;;;17.18;87.48;101306.31;5072313;28;20104;-42
2023/08/26 05:36:48;;;;;;;16.40;12.73;;;;;;;17.05;88.28;101298.47;5072464;28;20108;-45
2023/08/26 05:39:14;;;;;;;20.77;13.48;;;;;;;17.06;87.87;101300.94;5071923;28;20029;-45
2023/08/26 05:41:40;;;;;;;17.05;12.18;;;;;;;17.14;87.75;101305.13;5072297;28;20107;-42
2023/08/26 05:44:07;;;;;;;15.63;11.98;;;;;;;17.18;87.84;101310.91;5072198;28;20028;-46
2023/08/26 05:46:33;;;;;;;16.80;12.00;;;;;;;17.08;89.04;101301.50;5072047;28;20504;-42
2023/08/26 05:48:59;;;;;;;17.38;12.23;;;;;;;17.00;89.06;101307.28;5072421;28;20498;-42
2023/08/26 05:51:26;;;;;;;16.17;12.80;;;;;;;17.01;89.14;101302.69;5071952;28;20153;-43
2023/08/26 05:53:53;;;;;;;18.95;13.38;;;;;;;16.92;89.44;101306.81;5072110;28;20024;-42
2023/08/26 05:56:19;;;;;;;17.48;12.73;;;;;;;16.85;89.63;101307.78;5081804;28;20028;-42
2023/08/26 05:58:46;;;;;;;17.67;12.88;;;;;;;16.86;89.18;101303.19;5092153;28;20055;-42
2023/08/26 06:01:13;;;;;;;25.15;13.30;;;;;;;16.89;89.06;101308.94;5091936;28;20073;-42
2023/08/26 06:03:39;;;;;;;18.00;12.85;;;;;;;16.94;88.75;101302.84;5070861;28;20032;-46
2023/08/26 06:06:05;;;;;;;15.65;12.70;;;;;;;16.80;89.32;101309.53;5071582;28;20032;-43
2023/08/26 06:08:32;;;;;;;19.95;13.43;;;;;;;16.88;89.35;101320.84;5071091;28;20024;-43
2023/08/26 06:10:58;;;;;;;15.55;11.82;;;;;;;16.93;88.91;101311.97;5071779;28;20032;-43
2023/08/26 06:13:24;;;;;;;16.55;12.80;;;;;;;17.00;88.26;101323.53;5071379;28;20056;-45
2023/08/26 06:15:57;;;;;;;18.85;13.20;;;;;;;16.81;89.41;101322.81;5071447;28;20379;-43
2023/08/26 06:18:24;;;;;;;15.00;11.60;;;;;;;16.84;89.60;101322.34;5071002;28;20029;-43
2023/08/26 06:20:51;;;;;;;17.45;12.07;;;;;;;16.73;90.36;101325.06;5071154;28;20035;-43
2023/08/26 06:23:18;;;;;;;17.95;12.30;;;;;;;16.72;90.43;101309.91;5071548;28;20040;-44
2023/08/26 06:25:54;;;;;;;18.70;13.52;;;;;;;16.72;90.62;101315.31;5071234;28;20047;-42
2023/08/26 06:28:21;;;;;;;15.73;13.20;;;;;;;16.67;90.25;101312.44;5071039;28;20324;-43
2023/08/26 06:30:47;;;;;;;19.88;13.27;;;;;;;16.56;91.43;101314.09;5071364;28;20024;-43
2023/08/26 06:33:14;;;;;;;16.95;13.63;;;;;;;16.66;90.27;101308.94;5071407;28;20444;-42
2023/08/26 06:35:40;;;;;;;16.85;13.07;;;;;;;16.68;90.28;101305.97;5071110;28;20016;-42
2023/08/26 06:38:07;;;;;;;23.27;14.55;;;;;;;16.60;90.69;101305.28;5071605;28;20033;-43
2023/08/26 06:40:34;;;;;;;20.20;13.52;;;;;;;16.48;92.04;101301.72;5075416;28;20028;-43
2023/08/26 06:43:04;;;;;;;19.58;13.10;;;;;;;16.64;90.39;101301.03;5075355;28;20035;-43
2023/08/26 06:45:31;;;;;;;23.60;14.75;;;;;;;16.57;90.42;101303.03;5075348;28;20116;-42
2023/08/26 06:47:57;;;;;;;20.80;13.73;;;;;;;16.50;91.61;101293.41;5075313;28;20017;-42
2023/08/26 06:50:24;;;;;;;17.63;12.52;;;;;;;16.46;91.63;101295.75;5074921;28;20041;-42
2023/08/26 06:52:51;;;;;;;15.15;12.60;;;;;;;16.42;92.27;101289.16;5075195;28;20029;-42
2023/08/26 06:55:18;;;;;;;19.88;14.35;;;;;;;16.49;91.49;101292.59;5076274;28;20031;-43
2023/08/26 06:57:45;;;;;;;20.45;14.10;;;;;;;16.44;91.90;101294.34;5081203;28;20143;-43
2023/08/26 07:00:12;;;;;;;23.70;15.90;;;;;;;16.23;92.94;101282.22;5075503;28;20459;-43
2023/08/26 07:02:39;;;;;;;22.05;14.55;;;;;;;16.38;92.10;101290.72;5094984;28;20028;-42
2023/08/26 07:05:06;;;;;;;20.05;15.02;;;;;;;16.24;93.26;101289.25;5095311;28;20410;-42
2023/08/26 07:07:32;;;;;;;20.98;15.57;;;;;;;16.23;93.56;101284.91;5094722;28;20535;-43
2023/08/26 07:09:58;;;;;;;21.83;15.07;;;;;;;16.26;92.81;101295.25;5095143;28;20024;-43
2023/08/26 07:12:24;;;;;;;26.25;15.15;;;;;;;16.24;92.80;101291.97;5094956;28;20470;-42
2023/08/26 07:14:50;;;;;;;22.50;14.88;;;;;;;16.20;93.86;101293.47;5076805;28;20496;-41
2023/08/26 07:17:17;;;;;;;27.30;15.55;;;;;;;16.20;93.94;101288.88;5094810;28;20024;-42
2023/08/26 07:19:44;;;;;;;18.42;14.73;;;;;;;16.27;93.29;101292.34;5084450;28;20075;-42
2023/08/26 07:22:10;;;;;;;22.25;15.40;;;;;;;16.21;93.53;101292.41;5081335;28;20573;-42
2023/08/26 07:24:37;;;;;;;19.17;14.55;;;;;;;16.19;93.57;101299.94;5080954;28;20381;-42
2023/08/26 07:27:04;;;;;;;21.65;15.93;;;;;;;16.10;94.44;101289.47;5074424;28;20391;-42
2023/08/26 07:29:37;;;;;;;26.00;15.65;;;;;;;16.01;94.74;101284.63;5074355;28;20029;-45
2023/08/26 07:32:04;;;;;;;24.33;16.05;;;;;;;16.14;94.55;101289.81;5074423;28;20020;-42
2023/08/26 07:34:30;;;;;;;22.33;14.27;;;;;;;16.17;94.22;101288.56;5074654;28;20029;-46
2023/08/26 07:36:58;;;;;;;22.55;15.60;;;;;;;16.16;94.96;101292.28;5080951;28;20072;-43
2023/08/26 07:39:24;;;;;;;19.55;14.13;;;;;;;16.20;95.02;101291.59;5074040;28;20360;-42
2023/08/26 07:41:51;;;;;;;25.50;16.45;;;;;;;16.17;95.65;101293.97;5074426;28;20490;-42
2023/08/26 07:44:17;;;;;;;25.58;16.10;;;;;;;16.09;96.04;101292.41;5074116;28;20029;-43
2023/08/26 07:46:44;;;;;;;19.10;15.00;;;;;;;16.13;96.02;101293.59;5074055;28;20025;-43
2023/08/26 07:49:10;;;;;;;21.55;15.82;;;;;;;16.30;94.43;101296.44;5073671;28;20036;-42
2023/08/26 07:51:37;;;;;;;23.38;16.13;;;;;;;16.18;95.39;101292.91;5072891;28;20041;-43
2023/08/26 07:54:03;;;;;;;23.40;16.88;;;;;;;16.16;95.23;101297.69;5074037;28;20104;-42
2023/08/26 07:56:30;;;;;;;26.48;16.88;;;;;;;16.37;94.19;101313.34;5073734;28;20031;-43
2023/08/26 07:58:56;;;;;;;21.35;16.48;;;;;;;16.21;95.13;101305.91;5073192;28;20024;-42
2023/08/26 08:01:22;;;;;;;23.23;16.90;;;;;;;16.23;94.44;101306.53;5074111;28;20032;-42
2023/08/26 08:03:48;;;;;;;22.98;16.40;;;;;;;16.27;94.05;101305.03;5073672;28;20474;-43
2023/08/26 08:06:14;;;;;;;22.63;15.77;;;;;;;16.19;93.78;101306.16;5073618;28;20036;-42
2023/08/26 08:08:41;;;;;;;23.05;16.20;;;;;;;16.24;93.36;101300.06;5083359;28;20028;-42
2023/08/26 08:11:07;;;;;;;26.45;17.40;;;;;;;16.19;93.66;101308.03;5093800;28;20024;-43
2023/08/26 08:13:33;;;;;;;23.27;17.20;;;;;;;16.06;93.73;101304.50;5093407;28;20020;-42
2023/08/26 08:16:00;;;;;;;23.42;17.17;;;;;;;16.08;94.02;101301.56;5081284;28;20120;-42
2023/08/26 08:18:26;;;;;;;24.40;17.08;;;;;;;16.09;93.69;101303.19;5075930;28;20021;-41
2023/08/26 08:20:52;;;;;;;25.33;16.42;;;;;;;16.07;93.69;101300.72;5085758;28;20036;-42
2023/08/26 08:23:19;;;;;;;21.85;16.73;;;;;;;15.99;94.51;101298.38;5093677;28;20025;-42
2023/08/26 08:25:45;;;;;;;23.05;16.27;;;;;;;16.14;93.75;101302.50;5093773;28;20056;-44
2023/08/26 08:28:11;;;;;;;27.20;17.63;;;;;;;16.09;94.04;101303.19;5093358;28;20024;-42
2023/08/26 08:30:38;;;;;;;27.52;16.50;;;;;;;16.24;92.98;101305.47;5093249;28;20051;-42
2023/08/26 08:33:04;;;;;;;24.63;17.30;;;;;;;16.20;93.42;101293.47;5096888;28;20099;-42
2023/08/26 08:35:31;;;;;;;26.73;16.85;;;;;;;16.27;92.90;101296.91;5093419;28;20024;-43
2023/08/26 08:37:58;;;;;;;27.60;17.90;;;;;;;16.21;92.87;101303.22;5093130;28;20111;-42
2023/08/26 08:40:24;;;;;;;26.35;18.35;;;;;;;16.27;92.82;101295.03;5093042;28;20024;-42
2023/08/26 08:42:52;;;;;;;21.65;15.90;;;;;;;16.26;92.38;101287.97;5093427;28;20546;-42
2023/08/26 08:45:20;;;;;;;22.83;16.73;;;;;;;16.30;92.59;101293.72;5093199;28;20435;-43
2023/08/26 08:47:47;;;;;;;26.05;17.05;;;;;;;16.33;92.03;101288.69;5093213;28;20052;-43
2023/08/26 08:50:15;;;;;;;26.80;17.48;;;;;;;16.40;91.91;101288.59;5092898;28;20039;-44
2023/08/26 08:52:43;;;;;;;24.73;17.35;;;;;;;16.36;91.82;101285.50;5092939;28;20074;-42
2023/08/26 08:55:10;;;;;;;28.35;18.10;;;;;;;16.34;92.28;101284.13;5093038;28;20470;-42
2023/08/26 08:57:36;;;;;;;27.75;18.63;;;;;;;16.15;93.53;101280.66;5080230;28;20024;-43
2023/08/26 09:00:03;;;;;;;27.25;18.63;;;;;;;16.12;93.18;101278.44;5072660;28;20064;-42
2023/08/26 09:02:29;;;;;;;22.60;17.38;;;;;;;16.21;92.82;101282.47;5072355;28;20025;-42
2023/08/26 09:04:57;;;;;;;25.38;17.67;;;;;;;16.18;93.09;101282.09;5072508;28;20028;-42
2023/08/26 09:07:26;;;;;;;27.95;19.67;;;;;;;16.13;93.39;101277.38;5072397;28;20478;-42
2023/08/26 09:09:53;;;;;;;24.55;18.80;;;;;;;16.05;94.04;101281.25;5083824;28;20032;-44
2023/08/26 09:12:19;;;;;;;31.00;20.25;;;;;;;15.97;94.97;101281.56;5092800;28;20028;-42
2023/08/26 09:14:45;;;;;;;27.58;18.75;;;;;;;16.12;94.45;101274.91;5092687;28;20055;-43
2023/08/26 09:17:16;;;;;;;34.75;20.88;;;;;;;16.02;95.00;101279.00;5092348;28;20054;-43
2023/08/26 09:19:53;;;;;;;23.65;17.90;;;;;;;16.10;94.72;101269.72;5092525;28;20031;-43
2023/08/26 09:22:23;;;;;;;29.48;19.92;;;;;;;16.08;95.00;101267.28;5092615;28;20486;-42
2023/08/26 09:24:53;;;;;;;35.88;21.40;;;;;;;16.04;95.29;101274.19;5092550;28;20073;-42
2023/08/26 09:27:19;;;;;;;32.67;20.48;;;;;;;16.05;94.90;101270.44;5092570;28;20577;-42
2023/08/26 09:29:46;;;;;;;27.90;20.00;;;;;;;16.01;96.03;101276.53;5092288;28;20032;-42
2023/08/26 09:32:13;;;;;;;32.08;19.98;;;;;;;16.12;95.32;101273.03;5092267;28;20107;-43
2023/08/26 09:34:39;;;;;;;26.83;18.58;;;;;;;16.18;94.35;101274.00;5092422;28;20027;-43
2023/08/26 09:37:08;;;;;;;27.02;17.48;;;;;;;16.12;94.65;101274.91;5092181;28;20081;-42
2023/08/26 09:39:46;;;;;;;28.60;19.30;;;;;;;16.23;94.20;101276.81;5091717;28;20028;-43
2023/08/26 09:42:12;;;;;;;29.92;18.73;;;;;;;16.20;94.21;101277.28;5092172;28;20077;-42
2023/08/26 09:44:40;;;;;;;32.45;19.38;;;;;;;16.13;95.04;101280.09;5092128;28;20012;-42
2023/08/26 09:47:10;;;;;;;31.75;20.30;;;;;;;16.12;95.20;101280.31;5091887;28;20385;-42
2023/08/26 09:49:37;;;;;;;27.08;18.90;;;;;;;16.20;94.94;101277.28;5091761;28;20024;-44
2023/08/26 09:52:03;;;;;;;33.80;20.20;;;;;;;15.98;95.32;101274.28;5091996;28;20509;-43
2023/08/26 09:54:31;;;;;;;30.70;19.50;;;;;;;16.01;95.30;101274.66;5091816;28;20024;-42
2023/08/26 09:56:57;;;;;;;29.98;18.73;;;;;;;16.05;94.83;101267.75;5084881;28;20386;-42
2023/08/26 09:59:23;;;;;;;32.72;19.77;;;;;;;16.04;95.04;101276.88;5071420;28;20486;-43
2023/08/26 10:01:50;;;;;;;29.08;20.02;;;;;;;16.12;95.04;101274.91;5071617;28;20032;-42
2023/08/26 10:04:24;;;;;;;26.73;18.83;;;;;;;16.14;94.71;101270.91;5071450;28;20058;-42
2023/08/26 10:06:55;;;;;;;32.03;20.10;;;;;;;16.00;95.07;101272.19;5071750;28;20016;-42
2023/08/26 10:09:37;;;;;;;26.60;18.83;;;;;;;16.00;95.67;101267.63;5085697;28;20031;-44
2023/08/26 10:12:09;;;;;;;30.60;19.20;;;;;;;16.04;95.35;101268.78;5111909;28;20031;-42
2023/08/26 10:14:39;;;;;;;30.77;19.13;;;;;;;16.08;95.25;101271.84;5111528;28;20088;-43
2023/08/26 10:17:08;;;;;;;29.40;19.05;;;;;;;16.16;94.96;101270.69;5111797;28;20098;-42
2023/08/26 10:19:35;;;;;;;28.15;18.10;;;;;;;16.10;95.06;101273.28;5112051;28;20023;-43
2023/08/26 10:22:04;;;;;;;30.58;19.85;;;;;;;16.09;94.96;101274.31;5111894;28;20102;-42
2023/08/26 10:24:31;;;;;;;25.10;18.52;;;;;;;16.09;95.03;101282.41;5111694;28;20502;-43
2023/08/26 10:26:57;;;;;;;27.17;17.92;;;;;;;16.00;95.49;101275.72;5111933;28;20032;-42
2023/08/26 10:29:24;;;;;;;29.70;17.85;;;;;;;16.07;95.13;101281.00;5111838;28;20028;-42
2023/08/26 10:31:51;;;;;;;27.88;17.95;;;;;;;16.14;94.82;101272.81;5111727;28;20088;-43
2023/08/26 10:34:17;;;;;;;28.98;17.52;;;;;;;16.13;94.57;101271.16;5111856;28;20521;-42
2023/08/26 10:36:49;;;;;;;24.40;16.77;;;;;;;16.15;94.50;101274.44;5111996;28;20037;-43
2023/08/26 10:39:20;;;;;;;28.52;16.52;;;;;;;16.04;95.10;101274.19;5111593;28;20084;-43
2023/08/26 10:42:13;;;;;;;25.73;17.55;;;;;;;15.92;96.62;101267.94;5111695;28;20072;-44
2023/08/26 10:44:47;;;;;;;21.60;15.38;;;;;;;15.95;95.46;101270.19;5098989;28;20035;-42
2023/08/26 10:47:46;;;;;;;28.05;18.67;;;;;;;15.93;95.49;101266.88;5111611;28;20020;-44
2023/08/26 10:50:23;;;;;;;25.83;16.58;;;;;;;16.02;95.39;101270.91;5111783;28;20039;-42
2023/08/26 10:52:52;;;;;;;26.95;16.88;;;;;;;15.91;95.56;101268.19;5111745;28;20030;-42
2023/08/26 10:55:26;;;;;;;22.38;16.73;;;;;;;15.92;95.38;101265.22;5111780;28;20028;-42
2023/08/26 10:58:13;;;;;;;25.45;16.40;;;;;;;15.90;95.88;101270.06;5082049;28;20020;-44
2023/08/26 11:00:50;;;;;;;22.95;15.75;;;;;;;15.98;95.47;101275.09;5071093;28;20572;-42
2023/08/26 11:03:23;;;;;;;29.15;17.15;;;;;;;15.86;95.93;101266.16;5071282;28;20028;-43
2023/08/26 11:06:03;;;;;;;28.90;17.38;;;;;;;15.89;96.25;101271.13;5071132;28;20033;-43
2023/08/26 11:08:30;;;;;;;26.13;18.25;;;;;;;15.87;96.33;101278.59;5070432;28;20031;-43
2023/08/26 11:10:57;;;;;;;25.02;16.52;;;;;;;15.94;95.96;101273.94;5071011;28;20047;-43